sensor_id;sensor_type;location;lat;lon;timestamp;temperature;humidity
39325;DHT22;25037;49.488;9.900;2022-11-20T00:03:40;4.50;76.40
39325;DHT22;25037;49.488;9.900;2022-11-20T00:06:09;4.50;76.30
39325;DHT22;25037;49.488;9.900;2022-11-20T00:08:35;4.50;76.40
39325;DHT22;25037;49.488;9.900;2022-11-20T00:11:09;4.50;76.40
39325;DHT22;25037;49.488;9.900;2022-11-20T00:13:35;4.50;76.40
39325;DHT22;25037;49.488;9.900;2022-11-20T00:16:03;4.40;76.40
39325;DHT22;25037;49.488;9.900;2022-11-20T00:18:30;4.40;76.50
39325;DHT22;25037;49.488;9.900;2022-11-20T00:21:04;4.40;76.50
39325;DHT22;25037;49.488;9.900;2022-11-20T00:23:30;4.40;76.60
39325;DHT22;25037;49.488;9.900;2022-11-20T00:25:55;4.40;76.60
39325;DHT22;25037;49.488;9.900;2022-11-20T00:28:21;4.40;76.60
39325;DHT22;25037;49.488;9.900;2022-11-20T00:30:46;4.40;76.60
39325;DHT22;25037;49.488;9.900;2022-11-20T00:33:12;4.40;76.60
39325;DHT22;25037;49.488;9.900;2022-11-20T00:35:37;4.50;76.60
39325;DHT22;25037;49.488;9.900;2022-11-20T00:38:03;4.40;76.70
39325;DHT22;25037;49.488;9.900;2022-11-20T00:40:29;4.40;76.70
39325;DHT22;25037;49.488;9.900;2022-11-20T00:42:54;4.50;76.70
39325;DHT22;25037;49.488;9.900;2022-11-20T00:45:20;4.40;76.70
39325;DHT22;25037;49.488;9.900;2022-11-20T00:47:45;4.40;76.70
39325;DHT22;25037;49.488;9.900;2022-11-20T00:50:11;4.40;76.70
39325;DHT22;25037;49.488;9.900;2022-11-20T00:52:36;4.40;76.80
39325;DHT22;25037;49.488;9.900;2022-11-20T00:55:02;4.40;76.80
39325;DHT22;25037;49.488;9.900;2022-11-20T00:57:27;4.50;76.80
39325;DHT22;25037;49.488;9.900;2022-11-20T00:59:53;4.50;76.80
39325;DHT22;25037;49.488;9.900;2022-11-20T01:02:18;4.50;76.80
39325;DHT22;25037;49.488;9.900;2022-11-20T01:04:44;4.50;76.80
39325;DHT22;25037;49.488;9.900;2022-11-20T01:07:10;4.50;76.80
39325;DHT22;25037;49.488;9.900;2022-11-20T01:09:35;4.50;76.80
39325;DHT22;25037;49.488;9.900;2022-11-20T01:12:01;4.60;76.80
39325;DHT22;25037;49.488;9.900;2022-11-20T01:14:26;4.60;76.80
39325;DHT22;25037;49.488;9.900;2022-11-20T01:16:52;4.60;76.80
39325;DHT22;25037;49.488;9.900;2022-11-20T01:19:22;4.60;76.70
39325;DHT22;25037;49.488;9.900;2022-11-20T01:21:50;4.60;76.80
39325;DHT22;25037;49.488;9.900;2022-11-20T01:24:18;4.70;76.80
39325;DHT22;25037;49.488;9.900;2022-11-20T01:26:46;4.70;76.80
39325;DHT22;25037;49.488;9.900;2022-11-20T01:29:18;4.70;76.70
39325;DHT22;25037;49.488;9.900;2022-11-20T01:31:44;4.70;76.70
39325;DHT22;25037;49.488;9.900;2022-11-20T01:34:13;4.70;76.70
39325;DHT22;25037;49.488;9.900;2022-11-20T01:36:39;4.70;76.70
39325;DHT22;25037;49.488;9.900;2022-11-20T01:39:10;4.70;76.70
39325;DHT22;25037;49.488;9.900;2022-11-20T01:41:36;4.70;76.70
39325;DHT22;25037;49.488;9.900;2022-11-20T01:44:41;4.70;76.70
39325;DHT22;25037;49.488;9.900;2022-11-20T01:47:09;4.80;76.70
39325;DHT22;25037;49.488;9.900;2022-11-20T01:49:45;4.70;76.70
39325;DHT22;25037;49.488;9.900;2022-11-20T01:52:21;4.80;76.70
39325;DHT22;25037;49.488;9.900;2022-11-20T01:55:02;4.80;76.70
39325;DHT22;25037;49.488;9.900;2022-11-20T01:57:30;4.70;76.60
39325;DHT22;25037;49.488;9.900;2022-11-20T02:00:01;4.70;76.70
39325;DHT22;25037;49.488;9.900;2022-11-20T02:02:28;4.70;76.70
39325;DHT22;25037;49.488;9.900;2022-11-20T02:04:57;4.70;76.70
39325;DHT22;25037;49.488;9.900;2022-11-20T02:07:25;4.70;76.70
39325;DHT22;25037;49.488;9.900;2022-11-20T02:09:51;4.70;76.70
39325;DHT22;25037;49.488;9.900;2022-11-20T02:12:16;4.70;76.70
39325;DHT22;25037;49.488;9.900;2022-11-20T02:15:01;4.70;76.70
39325;DHT22;25037;49.488;9.900;2022-11-20T02:17:26;4.70;76.70
39325;DHT22;25037;49.488;9.900;2022-11-20T02:19:52;4.70;76.70
39325;DHT22;25037;49.488;9.900;2022-11-20T02:22:30;4.70;76.80
39325;DHT22;25037;49.488;9.900;2022-11-20T02:24:58;4.80;76.80
39325;DHT22;25037;49.488;9.900;2022-11-20T02:27:25;4.70;76.80
39325;DHT22;25037;49.488;9.900;2022-11-20T02:29:52;4.70;76.80
39325;DHT22;25037;49.488;9.900;2022-11-20T02:32:31;4.80;76.80
39325;DHT22;25037;49.488;9.900;2022-11-20T02:34:57;4.80;76.80
39325;DHT22;25037;49.488;9.900;2022-11-20T02:37:29;4.70;76.80
39325;DHT22;25037;49.488;9.900;2022-11-20T02:39:55;4.70;76.90
39325;DHT22;25037;49.488;9.900;2022-11-20T02:42:21;4.70;76.80
39325;DHT22;25037;49.488;9.900;2022-11-20T02:44:47;4.70;76.90
39325;DHT22;25037;49.488;9.900;2022-11-20T02:47:12;4.70;76.90
39325;DHT22;25037;49.488;9.900;2022-11-20T02:49:38;4.70;76.90
39325;DHT22;25037;49.488;9.900;2022-11-20T02:52:04;4.70;76.80
39325;DHT22;25037;49.488;9.900;2022-11-20T02:54:29;4.70;76.80
39325;DHT22;25037;49.488;9.900;2022-11-20T02:56:55;4.70;76.80
39325;DHT22;25037;49.488;9.900;2022-11-20T02:59:20;4.60;76.80
39325;DHT22;25037;49.488;9.900;2022-11-20T03:01:46;4.70;76.90
39325;DHT22;25037;49.488;9.900;2022-11-20T03:04:11;4.60;76.90
39325;DHT22;25037;49.488;9.900;2022-11-20T03:06:37;4.60;76.90
39325;DHT22;25037;49.488;9.900;2022-11-20T03:09:03;4.70;77.00
39325;DHT22;25037;49.488;9.900;2022-11-20T03:11:29;4.70;77.10
39325;DHT22;25037;49.488;9.900;2022-11-20T03:13:54;4.70;77.00
39325;DHT22;25037;49.488;9.900;2022-11-20T03:16:21;4.70;77.00
39325;DHT22;25037;49.488;9.900;2022-11-20T03:18:47;4.80;77.00
39325;DHT22;25037;49.488;9.900;2022-11-20T03:21:14;4.80;76.90
39325;DHT22;25037;49.488;9.900;2022-11-20T03:23:40;4.90;77.00
39325;DHT22;25037;49.488;9.900;2022-11-20T03:26:14;4.90;77.00
39325;DHT22;25037;49.488;9.900;2022-11-20T03:28:42;4.90;77.00
39325;DHT22;25037;49.488;9.900;2022-11-20T03:31:10;4.90;76.90
39325;DHT22;25037;49.488;9.900;2022-11-20T03:33:36;4.90;77.00
39325;DHT22;25037;49.488;9.900;2022-11-20T03:36:04;4.90;77.00
39325;DHT22;25037;49.488;9.900;2022-11-20T03:38:31;5.00;77.00
39325;DHT22;25037;49.488;9.900;2022-11-20T03:41:01;5.00;77.00
39325;DHT22;25037;49.488;9.900;2022-11-20T03:43:27;5.00;77.00
39325;DHT22;25037;49.488;9.900;2022-11-20T03:45:53;5.00;77.00
39325;DHT22;25037;49.488;9.900;2022-11-20T03:48:18;5.00;77.00
39325;DHT22;25037;49.488;9.900;2022-11-20T03:50:44;5.00;77.00
39325;DHT22;25037;49.488;9.900;2022-11-20T03:53:09;5.00;77.00
39325;DHT22;25037;49.488;9.900;2022-11-20T03:55:35;5.10;77.10
39325;DHT22;25037;49.488;9.900;2022-11-20T03:58:00;5.10;77.10
39325;DHT22;25037;49.488;9.900;2022-11-20T04:00:26;5.10;77.10
39325;DHT22;25037;49.488;9.900;2022-11-20T04:02:51;5.10;77.10
39325;DHT22;25037;49.488;9.900;2022-11-20T04:05:17;5.10;77.10
39325;DHT22;25037;49.488;9.900;2022-11-20T04:07:42;5.10;77.20
39325;DHT22;25037;49.488;9.900;2022-11-20T04:10:08;5.10;77.10
39325;DHT22;25037;49.488;9.900;2022-11-20T04:12:33;5.20;77.10
39325;DHT22;25037;49.488;9.900;2022-11-20T04:14:59;5.10;77.00
39325;DHT22;25037;49.488;9.900;2022-11-20T04:17:24;5.20;77.00
39325;DHT22;25037;49.488;9.900;2022-11-20T04:19:50;5.20;77.00
39325;DHT22;25037;49.488;9.900;2022-11-20T04:22:15;5.20;77.00
39325;DHT22;25037;49.488;9.900;2022-11-20T04:24:41;5.20;77.10
39325;DHT22;25037;49.488;9.900;2022-11-20T04:27:06;5.10;77.10
39325;DHT22;25037;49.488;9.900;2022-11-20T04:29:32;5.20;77.20
39325;DHT22;25037;49.488;9.900;2022-11-20T04:31:57;5.10;77.20
39325;DHT22;25037;49.488;9.900;2022-11-20T04:34:23;5.20;77.30
39325;DHT22;25037;49.488;9.900;2022-11-20T04:36:48;5.20;77.30
39325;DHT22;25037;49.488;9.900;2022-11-20T04:39:14;5.20;77.30
39325;DHT22;25037;49.488;9.900;2022-11-20T04:41:41;5.20;77.40
39325;DHT22;25037;49.488;9.900;2022-11-20T04:44:06;5.30;77.40
39325;DHT22;25037;49.488;9.900;2022-11-20T04:46:42;5.30;77.40
39325;DHT22;25037;49.488;9.900;2022-11-20T04:49:08;5.30;77.40
39325;DHT22;25037;49.488;9.900;2022-11-20T04:51:34;5.30;77.40
39325;DHT22;25037;49.488;9.900;2022-11-20T04:54:00;5.30;77.40
39325;DHT22;25037;49.488;9.900;2022-11-20T04:56:25;5.30;77.30
39325;DHT22;25037;49.488;9.900;2022-11-20T04:58:51;5.30;77.30
39325;DHT22;25037;49.488;9.900;2022-11-20T05:01:24;5.30;77.40
39325;DHT22;25037;49.488;9.900;2022-11-20T05:03:50;5.40;77.30
39325;DHT22;25037;49.488;9.900;2022-11-20T05:06:18;5.30;77.30
39325;DHT22;25037;49.488;9.900;2022-11-20T05:08:44;5.30;77.30
39325;DHT22;25037;49.488;9.900;2022-11-20T05:11:12;5.30;77.30
39325;DHT22;25037;49.488;9.900;2022-11-20T05:13:39;5.30;77.30
39325;DHT22;25037;49.488;9.900;2022-11-20T05:16:19;5.40;77.20
39325;DHT22;25037;49.488;9.900;2022-11-20T05:18:46;5.40;77.20
39325;DHT22;25037;49.488;9.900;2022-11-20T05:21:13;5.30;77.10
39325;DHT22;25037;49.488;9.900;2022-11-20T05:23:39;5.30;77.20
39325;DHT22;25037;49.488;9.900;2022-11-20T05:26:06;5.30;77.30
39325;DHT22;25037;49.488;9.900;2022-11-20T05:28:33;5.30;77.20
39325;DHT22;25037;49.488;9.900;2022-11-20T05:31:12;5.40;77.20
39325;DHT22;25037;49.488;9.900;2022-11-20T05:33:43;5.30;77.20
39325;DHT22;25037;49.488;9.900;2022-11-20T05:36:09;5.40;77.30
39325;DHT22;25037;49.488;9.900;2022-11-20T05:38:35;5.30;77.20
39325;DHT22;25037;49.488;9.900;2022-11-20T05:41:18;5.30;77.20
39325;DHT22;25037;49.488;9.900;2022-11-20T05:43:45;5.40;77.30
39325;DHT22;25037;49.488;9.900;2022-11-20T05:46:14;5.40;77.10
39325;DHT22;25037;49.488;9.900;2022-11-20T05:48:41;5.30;77.10
39325;DHT22;25037;49.488;9.900;2022-11-20T05:51:09;5.30;77.10
39325;DHT22;25037;49.488;9.900;2022-11-20T05:53:35;5.30;77.10
39325;DHT22;25037;49.488;9.900;2022-11-20T05:56:06;5.30;77.10
39325;DHT22;25037;49.488;9.900;2022-11-20T05:58:33;5.30;77.10
39325;DHT22;25037;49.488;9.900;2022-11-20T06:01:07;5.30;77.20
39325;DHT22;25037;49.488;9.900;2022-11-20T06:03:33;5.30;77.30
39325;DHT22;25037;49.488;9.900;2022-11-20T06:05:59;5.30;77.30
39325;DHT22;25037;49.488;9.900;2022-11-20T06:08:25;5.30;77.20
39325;DHT22;25037;49.488;9.900;2022-11-20T06:10:50;5.30;77.20
39325;DHT22;25037;49.488;9.900;2022-11-20T06:13:16;5.30;77.30
39325;DHT22;25037;49.488;9.900;2022-11-20T06:15:41;5.30;77.20
39325;DHT22;25037;49.488;9.900;2022-11-20T06:18:07;5.30;77.20
39325;DHT22;25037;49.488;9.900;2022-11-20T06:20:32;5.30;77.20
39325;DHT22;25037;49.488;9.900;2022-11-20T06:22:58;5.30;77.20
39325;DHT22;25037;49.488;9.900;2022-11-20T06:25:23;5.40;77.20
39325;DHT22;25037;49.488;9.900;2022-11-20T06:27:49;5.40;77.30
39325;DHT22;25037;49.488;9.900;2022-11-20T06:30:14;5.40;77.20
39325;DHT22;25037;49.488;9.900;2022-11-20T06:32:40;5.40;77.20
39325;DHT22;25037;49.488;9.900;2022-11-20T06:35:06;5.50;77.20
39325;DHT22;25037;49.488;9.900;2022-11-20T06:37:31;5.50;77.20
39325;DHT22;25037;49.488;9.900;2022-11-20T06:39:57;5.50;77.20
39325;DHT22;25037;49.488;9.900;2022-11-20T06:42:22;5.50;77.10
39325;DHT22;25037;49.488;9.900;2022-11-20T06:44:48;5.50;77.20
39325;DHT22;25037;49.488;9.900;2022-11-20T06:47:13;5.50;77.20
39325;DHT22;25037;49.488;9.900;2022-11-20T06:49:39;5.60;77.20
39325;DHT22;25037;49.488;9.900;2022-11-20T06:52:04;5.60;77.10
39325;DHT22;25037;49.488;9.900;2022-11-20T06:54:30;5.60;77.10
39325;DHT22;25037;49.488;9.900;2022-11-20T06:56:55;5.60;77.20
39325;DHT22;25037;49.488;9.900;2022-11-20T06:59:21;5.60;77.20
39325;DHT22;25037;49.488;9.900;2022-11-20T07:01:46;5.70;77.20
39325;DHT22;25037;49.488;9.900;2022-11-20T07:04:12;5.70;77.20
39325;DHT22;25037;49.488;9.900;2022-11-20T07:06:38;5.70;77.20
39325;DHT22;25037;49.488;9.900;2022-11-20T07:09:03;5.70;77.30
39325;DHT22;25037;49.488;9.900;2022-11-20T07:11:29;5.70;77.30
39325;DHT22;25037;49.488;9.900;2022-11-20T07:13:56;5.70;77.30
39325;DHT22;25037;49.488;9.900;2022-11-20T07:16:22;5.80;77.30
39325;DHT22;25037;49.488;9.900;2022-11-20T07:18:48;5.80;77.40
39325;DHT22;25037;49.488;9.900;2022-11-20T07:21:13;5.80;77.40
39325;DHT22;25037;49.488;9.900;2022-11-20T07:23:39;5.80;77.40
39325;DHT22;25037;49.488;9.900;2022-11-20T07:26:09;5.80;77.40
39325;DHT22;25037;49.488;9.900;2022-11-20T07:28:35;5.90;77.40
39325;DHT22;25037;49.488;9.900;2022-11-20T07:31:01;5.90;77.40
39325;DHT22;25037;49.488;9.900;2022-11-20T07:33:27;5.90;77.40
39325;DHT22;25037;49.488;9.900;2022-11-20T07:35:52;6.00;77.40
39325;DHT22;25037;49.488;9.900;2022-11-20T07:38:18;6.00;77.40
39325;DHT22;25037;49.488;9.900;2022-11-20T07:40:44;6.00;77.30
39325;DHT22;25037;49.488;9.900;2022-11-20T07:43:09;6.00;77.30
39325;DHT22;25037;49.488;9.900;2022-11-20T07:45:35;6.10;77.40
39325;DHT22;25037;49.488;9.900;2022-11-20T07:48:00;6.20;77.30
39325;DHT22;25037;49.488;9.900;2022-11-20T07:50:26;6.20;77.20
39325;DHT22;25037;49.488;9.900;2022-11-20T07:52:51;6.20;77.20
39325;DHT22;25037;49.488;9.900;2022-11-20T07:55:17;6.20;77.20
39325;DHT22;25037;49.488;9.900;2022-11-20T07:57:43;6.30;77.10
39325;DHT22;25037;49.488;9.900;2022-11-20T08:00:10;6.30;77.00
39325;DHT22;25037;49.488;9.900;2022-11-20T08:02:40;6.30;77.10
39325;DHT22;25037;49.488;9.900;2022-11-20T08:05:07;6.30;77.00
39325;DHT22;25037;49.488;9.900;2022-11-20T08:07:40;6.30;76.90
39325;DHT22;25037;49.488;9.900;2022-11-20T08:10:07;6.20;76.80
39325;DHT22;25037;49.488;9.900;2022-11-20T08:12:33;6.20;76.80
39325;DHT22;25037;49.488;9.900;2022-11-20T08:15:17;6.20;76.90
39325;DHT22;25037;49.488;9.900;2022-11-20T08:17:43;6.20;77.00
39325;DHT22;25037;49.488;9.900;2022-11-20T08:20:09;6.20;77.10
39325;DHT22;25037;49.488;9.900;2022-11-20T08:22:34;6.30;77.10
39325;DHT22;25037;49.488;9.900;2022-11-20T08:25:00;6.30;77.10
39325;DHT22;25037;49.488;9.900;2022-11-20T08:27:26;6.30;77.00
39325;DHT22;25037;49.488;9.900;2022-11-20T08:29:51;6.40;77.00
39325;DHT22;25037;49.488;9.900;2022-11-20T08:32:17;6.30;77.00
39325;DHT22;25037;49.488;9.900;2022-11-20T08:34:42;6.40;77.00
39325;DHT22;25037;49.488;9.900;2022-11-20T08:37:08;6.40;77.10
39325;DHT22;25037;49.488;9.900;2022-11-20T08:39:33;6.50;77.10
39325;DHT22;25037;49.488;9.900;2022-11-20T08:41:59;6.50;77.10
39325;DHT22;25037;49.488;9.900;2022-11-20T08:44:25;6.50;77.10
39325;DHT22;25037;49.488;9.900;2022-11-20T08:46:50;6.60;77.20
39325;DHT22;25037;49.488;9.900;2022-11-20T08:49:16;6.60;77.20
39325;DHT22;25037;49.488;9.900;2022-11-20T08:51:42;6.70;77.20
39325;DHT22;25037;49.488;9.900;2022-11-20T08:54:07;6.70;77.20
39325;DHT22;25037;49.488;9.900;2022-11-20T08:56:33;6.80;77.20
39325;DHT22;25037;49.488;9.900;2022-11-20T08:58:59;6.80;77.30
39325;DHT22;25037;49.488;9.900;2022-11-20T09:01:25;6.90;77.40
39325;DHT22;25037;49.488;9.900;2022-11-20T09:03:51;6.90;77.30
39325;DHT22;25037;49.488;9.900;2022-11-20T09:06:16;7.00;77.40
39325;DHT22;25037;49.488;9.900;2022-11-20T09:08:42;7.00;77.50
39325;DHT22;25037;49.488;9.900;2022-11-20T09:11:08;7.10;77.60
39325;DHT22;25037;49.488;9.900;2022-11-20T09:13:35;7.20;77.60
39325;DHT22;25037;49.488;9.900;2022-11-20T09:16:04;7.30;77.60
39325;DHT22;25037;49.488;9.900;2022-11-20T09:18:30;7.40;77.80
39325;DHT22;25037;49.488;9.900;2022-11-20T09:20:58;7.50;77.70
39325;DHT22;25037;49.488;9.900;2022-11-20T09:23:24;7.60;77.80
39325;DHT22;25037;49.488;9.900;2022-11-20T09:25:50;7.70;77.70
39325;DHT22;25037;49.488;9.900;2022-11-20T09:28:16;7.80;77.50
39325;DHT22;25037;49.488;9.900;2022-11-20T09:30:44;7.80;77.50
39325;DHT22;25037;49.488;9.900;2022-11-20T09:33:09;7.80;77.50
39325;DHT22;25037;49.488;9.900;2022-11-20T09:35:35;7.80;77.50
39325;DHT22;25037;49.488;9.900;2022-11-20T09:38:07;7.80;77.50
39325;DHT22;25037;49.488;9.900;2022-11-20T09:40:35;7.80;77.60
39325;DHT22;25037;49.488;9.900;2022-11-20T09:43:31;7.90;77.70
39325;DHT22;25037;49.488;9.900;2022-11-20T09:54:30;8.40;78.00
39325;DHT22;25037;49.488;9.900;2022-11-20T09:57:00;8.60;78.00
39325;DHT22;25037;49.488;9.900;2022-11-20T09:59:52;8.80;77.70
39325;DHT22;25037;49.488;9.900;2022-11-20T10:07:36;9.10;77.60
39325;DHT22;25037;49.488;9.900;2022-11-20T10:10:04;9.20;77.40
39325;DHT22;25037;49.488;9.900;2022-11-20T10:15:05;9.50;77.00
39325;DHT22;25037;49.488;9.900;2022-11-20T10:21:09;9.70;76.80
39325;DHT22;25037;49.488;9.900;2022-11-20T10:26:21;9.40;76.40
39325;DHT22;25037;49.488;9.900;2022-11-20T10:29:01;9.30;76.10
39325;DHT22;25037;49.488;9.900;2022-11-20T10:31:33;9.20;76.10
39325;DHT22;25037;49.488;9.900;2022-11-20T10:34:05;9.10;76.40
39325;DHT22;25037;49.488;9.900;2022-11-20T10:36:49;9.10;76.30
39325;DHT22;25037;49.488;9.900;2022-11-20T10:39:24;9.00;76.20
39325;DHT22;25037;49.488;9.900;2022-11-20T10:41:52;9.00;76.30
39325;DHT22;25037;49.488;9.900;2022-11-20T10:44:28;9.00;76.20
39325;DHT22;25037;49.488;9.900;2022-11-20T10:47:17;9.00;76.00
39325;DHT22;25037;49.488;9.900;2022-11-20T10:49:46;8.90;75.90
39325;DHT22;25037;49.488;9.900;2022-11-20T10:52:21;8.80;76.00
39325;DHT22;25037;49.488;9.900;2022-11-20T10:55:15;8.70;76.00
39325;DHT22;25037;49.488;9.900;2022-11-20T10:58:00;8.60;76.00
39325;DHT22;25037;49.488;9.900;2022-11-20T11:00:31;8.50;76.00
39325;DHT22;25037;49.488;9.900;2022-11-20T11:02:56;8.40;76.10
39325;DHT22;25037;49.488;9.900;2022-11-20T11:06:29;8.30;76.30
39325;DHT22;25037;49.488;9.900;2022-11-20T11:08:36;8.30;76.30
39325;DHT22;25037;49.488;9.900;2022-11-20T11:11:22;8.30;76.40
39325;DHT22;25037;49.488;9.900;2022-11-20T11:13:48;8.30;76.30
39325;DHT22;25037;49.488;9.900;2022-11-20T11:16:23;8.40;76.30
39325;DHT22;25037;49.488;9.900;2022-11-20T11:18:49;8.50;76.20
39325;DHT22;25037;49.488;9.900;2022-11-20T11:21:21;8.50;76.10
39325;DHT22;25037;49.488;9.900;2022-11-20T11:24:00;8.60;76.20
39325;DHT22;25037;49.488;9.900;2022-11-20T11:26:26;8.60;76.40
39325;DHT22;25037;49.488;9.900;2022-11-20T11:29:00;8.70;76.40
39325;DHT22;25037;49.488;9.900;2022-11-20T11:31:30;8.70;76.40
39325;DHT22;25037;49.488;9.900;2022-11-20T11:36:32;8.80;76.40
39325;DHT22;25037;49.488;9.900;2022-11-20T11:38:58;8.70;76.50
39325;DHT22;25037;49.488;9.900;2022-11-20T11:41:29;8.70;76.60
39325;DHT22;25037;49.488;9.900;2022-11-20T11:44:01;8.80;76.50
39325;DHT22;25037;49.488;9.900;2022-11-20T11:46:54;8.80;76.50
39325;DHT22;25037;49.488;9.900;2022-11-20T11:49:21;8.80;76.60
39325;DHT22;25037;49.488;9.900;2022-11-20T11:54:49;8.80;76.70
39325;DHT22;25037;49.488;9.900;2022-11-20T12:00:05;8.70;76.80
39325;DHT22;25037;49.488;9.900;2022-11-20T12:05:25;8.60;77.00
39325;DHT22;25037;49.488;9.900;2022-11-20T12:08:15;8.70;76.80
39325;DHT22;25037;49.488;9.900;2022-11-20T12:16:03;8.80;76.70
39325;DHT22;25037;49.488;9.900;2022-11-20T12:18:29;8.90;76.60
39325;DHT22;25037;49.488;9.900;2022-11-20T12:29:39;8.90;77.00
39325;DHT22;25037;49.488;9.900;2022-11-20T12:40:44;9.00;77.00
39325;DHT22;25037;49.488;9.900;2022-11-20T12:44:01;9.00;77.00
39325;DHT22;25037;49.488;9.900;2022-11-20T12:49:20;9.10;76.90
39325;DHT22;25037;49.488;9.900;2022-11-20T12:51:58;9.10;76.70
39325;DHT22;25037;49.488;9.900;2022-11-20T12:57:41;9.00;76.50
39325;DHT22;25037;49.488;9.900;2022-11-20T13:00:19;9.00;76.60
39325;DHT22;25037;49.488;9.900;2022-11-20T13:05:55;9.10;76.70
39325;DHT22;25037;49.488;9.900;2022-11-20T13:08:28;9.00;76.70
39325;DHT22;25037;49.488;9.900;2022-11-20T13:11:13;8.90;76.90
39325;DHT22;25037;49.488;9.900;2022-11-20T13:13:47;9.00;77.00
39325;DHT22;25037;49.488;9.900;2022-11-20T13:19:12;9.10;77.20
39325;DHT22;25037;49.488;9.900;2022-11-20T13:21:44;9.10;77.00
39325;DHT22;25037;49.488;9.900;2022-11-20T13:29:42;9.30;76.80
39325;DHT22;25037;49.488;9.900;2022-11-20T13:32:17;9.40;76.70
39325;DHT22;25037;49.488;9.900;2022-11-20T13:34:56;9.40;76.40
39325;DHT22;25037;49.488;9.900;2022-11-20T13:37:36;9.40;76.30
39325;DHT22;25037;49.488;9.900;2022-11-20T13:43:19;9.40;76.30
39325;DHT22;25037;49.488;9.900;2022-11-20T13:45:36;9.40;76.20
39325;DHT22;25037;49.488;9.900;2022-11-20T13:48:04;9.40;76.30
39325;DHT22;25037;49.488;9.900;2022-11-20T14:01:46;9.50;76.30
39325;DHT22;25037;49.488;9.900;2022-11-20T14:04:17;9.50;76.30
39325;DHT22;25037;49.488;9.900;2022-11-20T14:06:48;9.60;76.30
39325;DHT22;25037;49.488;9.900;2022-11-20T14:09:31;9.60;76.30
39325;DHT22;25037;49.488;9.900;2022-11-20T14:11:57;9.60;76.30
39325;DHT22;25037;49.488;9.900;2022-11-20T14:14:27;9.60;76.40
39325;DHT22;25037;49.488;9.900;2022-11-20T14:17:05;9.60;76.30
39325;DHT22;25037;49.488;9.900;2022-11-20T14:19:32;9.60;76.20
39325;DHT22;25037;49.488;9.900;2022-11-20T14:24:44;9.50;76.50
39325;DHT22;25037;49.488;9.900;2022-11-20T14:27:20;9.40;76.50
39325;DHT22;25037;49.488;9.900;2022-11-20T14:29:48;9.40;76.70
39325;DHT22;25037;49.488;9.900;2022-11-20T14:32:16;9.30;76.80
39325;DHT22;25037;49.488;9.900;2022-11-20T14:34:44;9.40;76.80
39325;DHT22;25037;49.488;9.900;2022-11-20T14:37:12;9.30;76.80
39325;DHT22;25037;49.488;9.900;2022-11-20T14:39:47;9.30;76.80
39325;DHT22;25037;49.488;9.900;2022-11-20T14:42:18;9.30;76.80
39325;DHT22;25037;49.488;9.900;2022-11-20T14:44:44;9.30;76.80
39325;DHT22;25037;49.488;9.900;2022-11-20T14:47:13;9.20;76.90
39325;DHT22;25037;49.488;9.900;2022-11-20T14:49:40;9.10;77.10
39325;DHT22;25037;49.488;9.900;2022-11-20T14:52:15;9.10;77.10
39325;DHT22;25037;49.488;9.900;2022-11-20T14:54:48;9.10;77.10
39325;DHT22;25037;49.488;9.900;2022-11-20T14:57:40;9.10;77.20
39325;DHT22;25037;49.488;9.900;2022-11-20T15:02:48;9.10;77.20
39325;DHT22;25037;49.488;9.900;2022-11-20T15:05:15;9.00;77.20
39325;DHT22;25037;49.488;9.900;2022-11-20T15:07:44;9.10;77.30
39325;DHT22;25037;49.488;9.900;2022-11-20T15:10:22;9.00;77.30
39325;DHT22;25037;49.488;9.900;2022-11-20T15:12:53;9.00;77.40
39325;DHT22;25037;49.488;9.900;2022-11-20T15:15:46;9.00;77.40
39325;DHT22;25037;49.488;9.900;2022-11-20T15:18:14;9.00;77.40
39325;DHT22;25037;49.488;9.900;2022-11-20T15:20:41;9.00;77.50
39325;DHT22;25037;49.488;9.900;2022-11-20T15:23:12;9.00;77.50
39325;DHT22;25037;49.488;9.900;2022-11-20T15:25:39;8.90;77.50
39325;DHT22;25037;49.488;9.900;2022-11-20T15:30:40;8.90;77.50
39325;DHT22;25037;49.488;9.900;2022-11-20T15:33:08;8.80;77.40
39325;DHT22;25037;49.488;9.900;2022-11-20T15:35:34;8.70;77.40
39325;DHT22;25037;49.488;9.900;2022-11-20T15:38:00;8.60;77.40
39325;DHT22;25037;49.488;9.900;2022-11-20T15:40:25;8.60;77.40
39325;DHT22;25037;49.488;9.900;2022-11-20T15:42:51;8.50;77.50
39325;DHT22;25037;49.488;9.900;2022-11-20T15:45:37;8.40;77.50
39325;DHT22;25037;49.488;9.900;2022-11-20T15:48:04;8.30;77.50
39325;DHT22;25037;49.488;9.900;2022-11-20T15:50:51;8.20;77.60
39325;DHT22;25037;49.488;9.900;2022-11-20T15:53:18;8.10;77.50
39325;DHT22;25037;49.488;9.900;2022-11-20T15:55:43;8.00;77.50
39325;DHT22;25037;49.488;9.900;2022-11-20T15:58:09;7.90;77.50
39325;DHT22;25037;49.488;9.900;2022-11-20T16:00:34;7.80;77.60
39325;DHT22;25037;49.488;9.900;2022-11-20T16:03:00;7.80;77.70
39325;DHT22;25037;49.488;9.900;2022-11-20T16:05:29;7.70;77.70
39325;DHT22;25037;49.488;9.900;2022-11-20T16:07:55;7.80;77.80
39325;DHT22;25037;49.488;9.900;2022-11-20T16:10:21;7.70;77.70
39325;DHT22;25037;49.488;9.900;2022-11-20T16:12:47;7.70;77.80
39325;DHT22;25037;49.488;9.900;2022-11-20T16:15:31;7.60;77.80
39325;DHT22;25037;49.488;9.900;2022-11-20T16:18:17;7.50;77.80
39325;DHT22;25037;49.488;9.900;2022-11-20T16:20:43;7.50;77.90
39325;DHT22;25037;49.488;9.900;2022-11-20T16:23:09;7.50;77.90
39325;DHT22;25037;49.488;9.900;2022-11-20T16:25:35;7.50;78.00
39325;DHT22;25037;49.488;9.900;2022-11-20T16:28:00;7.50;78.00
39325;DHT22;25037;49.488;9.900;2022-11-20T16:30:26;7.40;78.00
39325;DHT22;25037;49.488;9.900;2022-11-20T16:32:51;7.50;78.00
39325;DHT22;25037;49.488;9.900;2022-11-20T16:35:17;7.50;78.00
39325;DHT22;25037;49.488;9.900;2022-11-20T16:37:42;7.50;78.00
39325;DHT22;25037;49.488;9.900;2022-11-20T16:40:09;7.40;78.00
39325;DHT22;25037;49.488;9.900;2022-11-20T16:42:36;7.50;78.10
39325;DHT22;25037;49.488;9.900;2022-11-20T16:45:02;7.50;78.10
39325;DHT22;25037;49.488;9.900;2022-11-20T16:47:28;7.40;78.00
39325;DHT22;25037;49.488;9.900;2022-11-20T16:49:53;7.40;78.00
39325;DHT22;25037;49.488;9.900;2022-11-20T16:52:19;7.50;78.00
39325;DHT22;25037;49.488;9.900;2022-11-20T16:54:44;7.50;78.00
39325;DHT22;25037;49.488;9.900;2022-11-20T16:57:10;7.50;78.00
39325;DHT22;25037;49.488;9.900;2022-11-20T16:59:35;7.40;78.00
39325;DHT22;25037;49.488;9.900;2022-11-20T17:02:02;7.50;78.00
39325;DHT22;25037;49.488;9.900;2022-11-20T17:04:27;7.40;78.10
39325;DHT22;25037;49.488;9.900;2022-11-20T17:06:53;7.40;78.10
39325;DHT22;25037;49.488;9.900;2022-11-20T17:09:18;7.40;78.20
39325;DHT22;25037;49.488;9.900;2022-11-20T17:11:44;7.40;78.10
39325;DHT22;25037;49.488;9.900;2022-11-20T17:14:10;7.40;78.20
39325;DHT22;25037;49.488;9.900;2022-11-20T17:16:36;7.40;78.20
39325;DHT22;25037;49.488;9.900;2022-11-20T17:19:02;7.40;78.20
39325;DHT22;25037;49.488;9.900;2022-11-20T17:21:30;7.30;78.20
39325;DHT22;25037;49.488;9.900;2022-11-20T17:23:59;7.30;78.20
39325;DHT22;25037;49.488;9.900;2022-11-20T17:26:25;7.30;78.30
39325;DHT22;25037;49.488;9.900;2022-11-20T17:31:23;7.30;78.40
39325;DHT22;25037;49.488;9.900;2022-11-20T17:33:49;7.30;78.30
39325;DHT22;25037;49.488;9.900;2022-11-20T17:36:16;7.30;78.30